createdAt,value
2019-03-15T00:01:21.503Z,94744.64
2019-03-15T00:03:50.951Z,94748.58
2019-03-15T00:06:20.370Z,94754.47
2019-03-15T00:08:49.811Z,94764.09
2019-03-15T00:11:19.250Z,94768.27
2019-03-15T00:13:48.731Z,94767.08
2019-03-15T00:16:18.145Z,94775.26
2019-03-15T00:18:47.588Z,94780.69
2019-03-15T00:21:17.013Z,94783.80
2019-03-15T00:23:46.464Z,94787.74
2019-03-15T00:26:15.885Z,94778.64
2019-03-15T00:28:45.332Z,94787.23
2019-03-15T00:31:14.777Z,94793.43
2019-03-15T00:33:44.240Z,94793.48
2019-03-15T00:36:13.659Z,94792.19
2019-03-15T00:38:43.160Z,94798.61
2019-03-15T00:41:12.530Z,94796.47
2019-03-15T00:43:41.964Z,94798.67
2019-03-15T00:46:11.407Z,94800.52
2019-03-15T00:48:40.837Z,94800.05
2019-03-15T00:51:10.269Z,94809.89
2019-03-15T00:53:40.144Z,94814.81
2019-03-15T00:56:10.059Z,94809.73
2019-03-15T00:58:39.880Z,94810.63
2019-03-15T01:01:10.194Z,94814.09
2019-03-15T01:03:40.213Z,94808.91
2019-03-15T01:06:10.232Z,94815.49
2019-03-15T01:08:39.827Z,94816.77
2019-03-15T01:11:09.301Z,94823.96
2019-03-15T01:13:38.856Z,94824.73
2019-03-15T01:16:08.946Z,94829.55
2019-03-15T01:18:38.574Z,94835.48
2019-03-15T01:21:08.050Z,94826.63
2019-03-15T01:23:37.513Z,94842.68
2019-03-15T01:26:07.063Z,94838.64
2019-03-15T01:28:36.573Z,94838.91
2019-03-15T01:31:06.153Z,94832.48
2019-03-15T01:33:35.727Z,94830.28
2019-03-15T01:36:05.259Z,94836.41
2019-03-15T01:38:35.240Z,94832.67
2019-03-15T01:41:05.376Z,94830.44
2019-03-15T01:43:35.279Z,94834.87
2019-03-15T01:46:05.193Z,94837.53
2019-03-15T01:48:35.006Z,94839.78
2019-03-15T01:51:05.024Z,94838.49
2019-03-15T01:53:34.865Z,94841.14
2019-03-15T01:56:04.752Z,94833.34
2019-03-15T01:58:34.685Z,94847.62
2019-03-15T02:01:08.065Z,94863.50
2019-03-15T02:03:40.144Z,94855.71
2019-03-15T02:06:10.163Z,94859.96
2019-03-15T02:08:40.065Z,94862.96
2019-03-15T02:11:09.984Z,94871.80
2019-03-15T02:13:39.807Z,94869.34
2019-03-15T02:16:09.722Z,94868.78
2019-03-15T02:18:39.637Z,94865.53
2019-03-15T02:21:09.566Z,94865.08
2019-03-15T02:23:39.585Z,94864.78
2019-03-15T02:26:09.613Z,94867.64
2019-03-15T02:28:39.116Z,94869.91
2019-03-15T02:31:08.608Z,94868.29
2019-03-15T02:33:38.013Z,94866.48
2019-03-15T02:36:07.566Z,94870.37
2019-03-15T02:38:37.070Z,94871.61
2019-03-15T02:41:06.550Z,94878.20
2019-03-15T02:43:36.008Z,94870.09
2019-03-15T02:46:05.549Z,94875.52
2019-03-15T02:48:35.021Z,94909.32
2019-03-15T02:51:04.537Z,94897.92
2019-03-15T02:53:34.851Z,94908.94
2019-03-15T02:56:04.630Z,94911.40
2019-03-15T02:58:34.633Z,94918.02
2019-03-15T03:01:04.529Z,94905.54
2019-03-15T03:03:34.346Z,94915.26
2019-03-15T03:06:04.372Z,94909.89
2019-03-15T03:08:34.176Z,94915.48
2019-03-15T03:11:04.014Z,94911.64
2019-03-15T03:13:33.898Z,94917.07
2019-03-15T03:16:03.815Z,94924.83
2019-03-15T03:18:34.562Z,94929.86
2019-03-15T03:21:04.874Z,94929.29
2019-03-15T03:23:34.345Z,94937.86
2019-03-15T03:26:03.817Z,94938.77
2019-03-15T03:28:33.278Z,94942.09
2019-03-15T03:31:02.795Z,94938.63
2019-03-15T03:33:32.225Z,94936.86
2019-03-15T03:36:01.723Z,94942.39
2019-03-15T03:38:31.192Z,94937.88
2019-03-15T03:41:00.729Z,94951.91
2019-03-15T03:43:30.268Z,94955.83
2019-03-15T03:45:59.736Z,94950.72
2019-03-15T03:48:29.192Z,94960.88
2019-03-15T03:51:00.205Z,94954.77
2019-03-15T03:53:30.294Z,94967.23
2019-03-15T03:56:00.721Z,94959.66
2019-03-15T03:58:30.534Z,94963.90
2019-03-15T04:01:00.449Z,94970.14
2019-03-15T04:03:30.582Z,94962.70
2019-03-15T04:06:00.587Z,94972.90
2019-03-15T04:08:30.517Z,94968.93
2019-03-15T04:11:00.418Z,94974.86
2019-03-15T04:13:29.848Z,94986.02
2019-03-15T04:15:59.389Z,94985.39
2019-03-15T04:18:29.021Z,94985.54
2019-03-15T04:20:58.505Z,94985.72
2019-03-15T04:23:27.947Z,94989.48
2019-03-15T04:25:59.137Z,94983.44
2019-03-15T04:28:28.597Z,94982.17
2019-03-15T04:30:58.126Z,94973.28
2019-03-15T04:33:27.578Z,94991.44
2019-03-15T04:35:57.087Z,94997.74
2019-03-15T04:38:26.531Z,94991.23
2019-03-15T04:40:56.203Z,95002.23
2019-03-15T04:43:26.144Z,94998.47
2019-03-15T04:45:56.066Z,95007.80
2019-03-15T04:48:25.538Z,95010.59
2019-03-15T04:50:55.122Z,95006.88
2019-03-15T04:53:24.603Z,95006.31
2019-03-15T04:55:54.113Z,95000.80
2019-03-15T04:58:24.507Z,95007.95
2019-03-15T05:00:53.974Z,95013.38
2019-03-15T05:03:23.521Z,95018.34
2019-03-15T05:06:03.115Z,95018.73
2019-03-15T05:08:24.220Z,95010.78
2019-03-15T05:10:53.772Z,95003.19
2019-03-15T05:13:35.234Z,94999.86
2019-03-15T05:16:04.709Z,95006.59
2019-03-15T05:18:34.605Z,95017.84
2019-03-15T05:21:04.427Z,95018.52
2019-03-15T05:23:34.664Z,95016.77
2019-03-15T05:26:04.437Z,95022.58
2019-03-15T05:28:34.463Z,95025.28
2019-03-15T05:31:04.472Z,95024.47
2019-03-15T05:33:34.387Z,95020.22
2019-03-15T05:36:04.208Z,95031.14
2019-03-15T05:38:34.982Z,95030.69
2019-03-15T05:41:05.878Z,95028.94
2019-03-15T05:43:35.893Z,95030.55
2019-03-15T05:46:05.808Z,95046.16
2019-03-15T05:48:35.826Z,95020.55
2019-03-15T05:51:05.744Z,95026.61
2019-03-15T05:53:54.533Z,95026.28
2019-03-15T05:56:43.310Z,95027.09
2019-03-15T05:59:32.146Z,95030.13
2019-03-15T06:02:20.932Z,95040.97
2019-03-15T06:08:38.210Z,95057.30
2019-03-15T06:11:26.964Z,95036.50
2019-03-15T06:14:15.751Z,95053.09
2019-03-15T06:17:04.545Z,95056.38
2019-03-15T06:19:53.309Z,95050.31
2019-03-15T06:22:42.095Z,94994.11
2019-03-15T06:25:30.891Z,94992.39
2019-03-15T06:28:12.241Z,94979.72
2019-03-15T06:31:01.005Z,95022.38
2019-03-15T06:33:49.804Z,95024.66
2019-03-15T06:36:38.576Z,94964.55
2019-03-15T06:39:27.363Z,94958.84
2019-03-15T06:42:16.146Z,95037.63
2019-03-15T06:45:25.831Z,95041.75
2019-03-15T06:48:14.598Z,95042.31
2019-03-15T06:51:03.374Z,94959.25
2019-03-15T06:53:52.187Z,95041.30
2019-03-15T06:56:40.949Z,95057.08
2019-03-15T06:59:29.728Z,95062.63
2019-03-15T07:02:19.579Z,95057.19
2019-03-15T07:05:11.802Z,95038.40
2019-03-15T07:07:59.887Z,94983.17
2019-03-15T07:10:48.652Z,95059.98
2019-03-15T07:13:37.444Z,95006.77
2019-03-15T07:16:26.212Z,95039.23
2019-03-15T07:19:25.498Z,95045.91
2019-03-15T07:22:05.479Z,95041.99
2019-03-15T07:24:54.278Z,95039.66
2019-03-15T07:27:23.763Z,95009.05
2019-03-15T07:30:04.430Z,95039.95
2019-03-15T07:32:53.212Z,95028.14
2019-03-15T07:35:42.098Z,95040.69
2019-03-15T07:38:30.852Z,94998.21
2019-03-15T07:41:19.643Z,95044.92
2019-03-15T07:44:08.416Z,95032.22
2019-03-15T07:46:57.174Z,94950.98
2019-03-15T07:49:45.947Z,95050.28
2019-03-15T07:52:54.103Z,95042.48
2019-03-15T07:55:42.858Z,95038.02
2019-03-15T07:58:12.297Z,95041.47
2019-03-15T08:01:01.052Z,95047.54
2019-03-15T08:03:30.502Z,94949.33
2019-03-15T08:06:19.803Z,95052.25
2019-03-15T08:08:49.364Z,95046.39
2019-03-15T08:11:18.860Z,95062.74
2019-03-15T08:13:49.409Z,95066.23
2019-03-15T08:16:18.885Z,95064.13
2019-03-15T08:18:50.288Z,95066.97
2019-03-15T08:21:22.626Z,95068.14
2019-03-15T08:23:51.002Z,95061.19
2019-03-15T08:26:20.603Z,95064.38
2019-03-15T08:28:50.073Z,95056.41
2019-03-15T08:31:19.549Z,95067.72
2019-03-15T08:33:50.476Z,95072.84
2019-03-15T08:36:20.455Z,95063.63
2019-03-15T08:38:49.991Z,95070.13
2019-03-15T08:41:19.498Z,95076.38
2019-03-15T08:43:48.972Z,95075.98
2019-03-15T08:46:18.565Z,95072.77
2019-03-15T08:48:48.045Z,95087.34
2019-03-15T08:51:17.512Z,95072.77
2019-03-15T08:53:46.975Z,95068.62
2019-03-15T08:56:16.450Z,95086.08
2019-03-15T08:58:45.935Z,95080.78
2019-03-15T09:01:15.385Z,95076.17
2019-03-15T09:03:44.864Z,95081.68
2019-03-15T09:06:14.313Z,95083.13
2019-03-15T09:08:45.810Z,95075.48
2019-03-15T09:11:15.233Z,95076.38
2019-03-15T09:13:44.710Z,95072.59
2019-03-15T09:16:14.159Z,95081.23
2019-03-15T09:18:43.640Z,95072.77
2019-03-15T09:21:13.088Z,95088.41
2019-03-15T09:23:42.679Z,95071.33
2019-03-15T09:26:12.172Z,95059.73
2019-03-15T09:28:41.679Z,95057.39
2019-03-15T09:31:11.133Z,95060.49
2019-03-15T09:33:40.624Z,95057.39
2019-03-15T09:36:11.022Z,95054.34
2019-03-15T09:38:40.501Z,95050.92
2019-03-15T09:41:10.968Z,95043.03
2019-03-15T09:43:40.479Z,95044.48
2019-03-15T09:46:09.939Z,95038.73
2019-03-15T09:48:39.409Z,95052.16
2019-03-15T09:51:08.882Z,95042.95
2019-03-15T09:53:38.365Z,95051.13
2019-03-15T09:56:07.852Z,95048.24
2019-03-15T09:58:37.358Z,95047.28
2019-03-15T10:01:07.609Z,95047.10
2019-03-15T10:03:37.339Z,95041.39
2019-03-15T10:06:15.056Z,95041.56
2019-03-15T10:08:37.993Z,95042.38
2019-03-15T10:11:07.479Z,95031.28
2019-03-15T10:13:36.952Z,95027.63
2019-03-15T10:16:06.389Z,95027.06
2019-03-15T10:18:35.872Z,95018.70
2019-03-15T10:21:05.377Z,95023.59
2019-03-15T10:23:34.835Z,95018.33
2019-03-15T10:26:04.283Z,95020.25
2019-03-15T10:28:33.765Z,95021.58
2019-03-15T10:31:03.220Z,95000.60
2019-03-15T10:33:32.721Z,95006.31
2019-03-15T10:36:02.142Z,94995.83
2019-03-15T10:38:31.613Z,94999.62
2019-03-15T10:41:01.474Z,94993.00
2019-03-15T10:43:31.171Z,94985.67
2019-03-15T10:46:02.267Z,94988.08
2019-03-15T10:48:31.766Z,94981.31
2019-03-15T10:51:01.198Z,94971.59
2019-03-15T10:53:30.683Z,94977.31
2019-03-15T10:56:00.763Z,94979.34
2019-03-15T10:58:30.309Z,94969.61
2019-03-15T11:00:59.854Z,94955.16
2019-03-15T11:03:29.390Z,94954.71
2019-03-15T11:05:59.010Z,94952.19
2019-03-15T11:08:28.482Z,94947.25
2019-03-15T11:10:57.943Z,94947.67
2019-03-15T11:13:27.447Z,94941.67
2019-03-15T11:15:56.928Z,94946.98
2019-03-15T11:18:26.375Z,94945.44
2019-03-15T11:20:55.907Z,94939.63
2019-03-15T11:23:25.375Z,94942.68
2019-03-15T11:25:54.945Z,94944.38
2019-03-15T11:28:24.391Z,94952.19
2019-03-15T11:30:53.855Z,94941.06
2019-03-15T11:33:23.332Z,94953.77
2019-03-15T11:35:52.805Z,94942.48
2019-03-15T11:38:22.233Z,94945.18
2019-03-15T11:40:51.713Z,94946.86
2019-03-15T11:43:21.179Z,94950.39
2019-03-15T11:45:50.653Z,94940.37
2019-03-15T11:48:20.149Z,94955.66
2019-03-15T11:50:49.593Z,94938.97
2019-03-15T11:53:19.125Z,94930.76
2019-03-15T11:55:48.579Z,94943.52
2019-03-15T11:58:18.042Z,94932.09
2019-03-15T12:00:47.522Z,94939.11
2019-03-15T12:03:17.003Z,94945.33
2019-03-15T12:05:46.470Z,94934.50
2019-03-15T12:08:15.963Z,94922.59
2019-03-15T12:10:45.443Z,94924.55
2019-03-15T12:13:14.928Z,94913.09
2019-03-15T12:15:44.480Z,94916.38
2019-03-15T12:18:13.943Z,94907.79
2019-03-15T12:20:43.454Z,94918.12
2019-03-15T12:23:12.923Z,94899.12
2019-03-15T12:25:42.514Z,94897.16
2019-03-15T12:28:11.961Z,94897.42
2019-03-15T12:30:43.244Z,94893.95
2019-03-15T12:33:12.796Z,94891.47
2019-03-15T12:35:42.304Z,94891.50
2019-03-15T12:38:11.749Z,94896.36
2019-03-15T12:40:41.277Z,94892.70
2019-03-15T12:43:10.714Z,94897.73
2019-03-15T12:45:40.200Z,94905.27
2019-03-15T12:48:09.660Z,94892.33
2019-03-15T12:50:39.161Z,94904.88
2019-03-15T12:53:09.624Z,94897.05
2019-03-15T12:55:39.051Z,94891.03
2019-03-15T12:58:08.508Z,94885.73
2019-03-15T13:00:37.975Z,94898.25
2019-03-15T13:03:07.434Z,94911.58
2019-03-15T13:05:37.018Z,94890.05
2019-03-15T13:08:06.451Z,94897.55
2019-03-15T13:10:35.945Z,94905.81
2019-03-15T13:13:05.403Z,94887.73
2019-03-15T13:15:34.870Z,94880.01
2019-03-15T13:18:04.396Z,94893.91
2019-03-15T13:20:35.018Z,94908.28
2019-03-15T13:23:04.514Z,94896.28
2019-03-15T13:25:34.017Z,94902.74
2019-03-15T13:28:03.580Z,94904.09
2019-03-15T13:30:33.081Z,94907.09
2019-03-15T13:33:02.547Z,94891.09
2019-03-15T13:35:32.062Z,94899.67
2019-03-15T13:38:01.536Z,94917.25
2019-03-15T13:40:30.990Z,94915.88
2019-03-15T13:43:02.448Z,94906.06
2019-03-15T13:45:31.935Z,94915.95
2019-03-15T13:48:02.511Z,94911.91
2019-03-15T13:50:31.982Z,94912.73
2019-03-15T13:53:03.527Z,94917.78
2019-03-15T13:55:33.059Z,94924.96
2019-03-15T13:58:02.602Z,94924.70
2019-03-15T14:00:32.045Z,94913.00
2019-03-15T14:03:01.533Z,94928.69
2019-03-15T14:05:31.104Z,94925.29
2019-03-15T14:08:11.163Z,94937.51
2019-03-15T14:10:31.767Z,94919.67
2019-03-15T14:13:01.249Z,94910.40
2019-03-15T14:15:30.733Z,94938.41
2019-03-15T14:18:00.186Z,94921.06
2019-03-15T14:20:29.652Z,94912.30
2019-03-15T14:22:59.133Z,94915.23
2019-03-15T14:25:30.185Z,94912.85
2019-03-15T14:27:59.671Z,94908.31
2019-03-15T14:30:29.177Z,94912.08
2019-03-15T14:32:59.577Z,94917.87
2019-03-15T14:35:29.076Z,94909.86
2019-03-15T14:37:58.638Z,94913.09
2019-03-15T14:40:28.380Z,94904.08
2019-03-15T14:42:58.297Z,94911.77
2019-03-15T14:45:28.209Z,94905.88
2019-03-15T14:47:57.720Z,94909.87
2019-03-15T14:50:27.265Z,94914.15
2019-03-15T14:52:56.758Z,94905.11
2019-03-15T14:55:26.376Z,94898.19
2019-03-15T14:57:55.881Z,94915.23
2019-03-15T15:00:25.387Z,94898.45
2019-03-15T15:02:54.893Z,94901.67
2019-03-15T15:05:24.331Z,94897.68
2019-03-15T15:07:53.908Z,94901.17
2019-03-15T15:10:23.362Z,94902.01
2019-03-15T15:12:52.918Z,94907.00
2019-03-15T15:15:22.354Z,94909.69
2019-03-15T15:17:51.846Z,94902.28
2019-03-15T15:20:21.373Z,94906.25
2019-03-15T15:22:50.869Z,94905.17
2019-03-15T15:25:20.513Z,94928.83
2019-03-15T15:27:50.001Z,94903.33
2019-03-15T15:30:19.613Z,94907.55
2019-03-15T15:32:49.109Z,94908.36
2019-03-15T15:35:18.556Z,94907.31
2019-03-15T15:37:48.041Z,94916.16
2019-03-15T15:40:20.962Z,94915.82
2019-03-15T15:42:50.527Z,94916.05
2019-03-15T15:45:25.927Z,94916.14
2019-03-15T15:47:56.586Z,94908.13
2019-03-15T15:50:26.061Z,94915.06
2019-03-15T15:52:55.608Z,94911.03
2019-03-15T15:55:25.067Z,94903.86
2019-03-15T15:57:54.598Z,94906.00
2019-03-15T16:00:24.134Z,94907.59
2019-03-15T16:02:53.737Z,94902.03
2019-03-15T16:05:23.191Z,94909.73
2019-03-15T16:07:52.694Z,94905.72
2019-03-15T16:10:22.199Z,94907.34
2019-03-15T16:12:51.702Z,94914.56
2019-03-15T16:15:21.392Z,94915.91
2019-03-15T16:17:50.979Z,94922.28
2019-03-15T16:20:20.429Z,94922.58
2019-03-15T16:22:49.971Z,94915.43
2019-03-15T16:25:19.488Z,94936.67
2019-03-15T16:28:02.301Z,94914.88
2019-03-15T16:30:31.786Z,94924.16
2019-03-15T16:33:01.282Z,94926.82
2019-03-15T16:35:30.721Z,94917.78
2019-03-15T16:38:00.270Z,94920.18
2019-03-15T16:40:29.781Z,94925.48
2019-03-15T16:42:59.287Z,94942.27
2019-03-15T16:45:30.910Z,94929.47
2019-03-15T16:48:00.436Z,94936.98
2019-03-15T16:50:29.883Z,94956.42
2019-03-15T16:52:59.401Z,94930.02
2019-03-15T16:55:28.887Z,94939.16
2019-03-15T16:57:58.413Z,94937.22
2019-03-15T17:00:28.049Z,94942.01
2019-03-15T17:03:03.302Z,94948.67
2019-03-15T17:05:32.834Z,94958.23
2019-03-15T17:08:02.312Z,94955.88
2019-03-15T17:10:34.729Z,94966.75
2019-03-15T17:13:04.317Z,94960.89
2019-03-15T17:15:33.826Z,94967.03
2019-03-15T17:18:03.336Z,94962.24
2019-03-15T17:20:32.822Z,94987.30
2019-03-15T17:23:02.464Z,94991.30
2019-03-15T17:25:31.982Z,94987.30
2019-03-15T17:28:01.467Z,94984.59
2019-03-15T17:30:33.106Z,94979.84
2019-03-15T17:33:02.118Z,95007.47
2019-03-15T17:35:31.600Z,94978.45
2019-03-15T17:38:01.129Z,94992.53
2019-03-15T17:40:30.656Z,95006.69
2019-03-15T17:43:00.196Z,94999.04
2019-03-15T17:45:32.535Z,95003.23
2019-03-15T17:48:02.102Z,94999.52
2019-03-15T17:50:31.612Z,94999.78
2019-03-15T17:53:01.106Z,95014.95
2019-03-15T17:55:30.693Z,95015.51
2019-03-15T17:58:00.190Z,95018.27
2019-03-15T18:00:46.977Z,95024.91
2019-03-15T18:03:21.441Z,95036.91
2019-03-15T18:05:47.914Z,95037.13
2019-03-15T18:08:17.509Z,95042.45
2019-03-15T18:10:47.202Z,95047.49
2019-03-15T18:13:16.666Z,95037.41
2019-03-15T18:15:46.166Z,95034.78
2019-03-15T18:18:15.675Z,95030.72
2019-03-15T18:20:45.207Z,95029.37
2019-03-15T18:23:14.800Z,95034.72
2019-03-15T18:25:44.560Z,95035.25
2019-03-15T18:28:14.096Z,95033.91
2019-03-15T18:30:43.641Z,95062.44
2019-03-15T18:33:13.289Z,95049.95
2019-03-15T18:35:43.842Z,95049.45
2019-03-15T18:38:13.755Z,95033.68
2019-03-15T18:40:48.961Z,95034.47
2019-03-15T18:43:20.507Z,95031.70
2019-03-15T18:45:50.148Z,95048.73
2019-03-15T18:48:19.638Z,95027.67
2019-03-15T18:50:52.206Z,95028.16
2019-03-15T18:53:21.754Z,95045.46
2019-03-15T18:55:54.770Z,95024.95
2019-03-15T18:58:25.752Z,95027.64
2019-03-15T19:00:55.407Z,95041.79
2019-03-15T19:03:25.010Z,95034.28
2019-03-15T19:05:59.235Z,95027.11
2019-03-15T19:08:28.831Z,95043.63
2019-03-15T19:10:59.080Z,95044.69
2019-03-15T19:13:28.542Z,95053.22
2019-03-15T19:15:58.100Z,95043.37
2019-03-15T19:18:29.376Z,95066.32
2019-03-15T19:21:07.941Z,95050.09
2019-03-15T19:23:36.675Z,95054.37
2019-03-15T19:26:06.259Z,95071.96
2019-03-15T19:28:35.778Z,95051.20
2019-03-15T19:31:05.319Z,95051.20
2019-03-15T19:33:35.850Z,95055.75
2019-03-15T19:36:05.395Z,95048.53
2019-03-15T19:38:34.864Z,95031.80
2019-03-15T19:41:04.440Z,95046.99
2019-03-15T19:43:33.918Z,95056.08
2019-03-15T19:46:03.421Z,95043.05
2019-03-15T19:48:33.913Z,95042.50
2019-03-15T19:51:04.722Z,95049.48
2019-03-15T19:53:34.195Z,95053.23
2019-03-15T19:56:03.721Z,95051.09
2019-03-15T19:58:33.282Z,95049.45
2019-03-15T20:01:02.799Z,95056.25
2019-03-15T20:03:43.681Z,95047.42
2019-03-15T20:06:03.548Z,95045.33
2019-03-15T20:08:33.026Z,95036.79
2019-03-15T20:11:02.559Z,95045.30
2019-03-15T20:13:32.102Z,95049.55
2019-03-15T20:16:01.581Z,95040.81
2019-03-15T20:18:31.136Z,95051.24
2019-03-15T20:21:00.656Z,95057.88
2019-03-15T20:23:30.150Z,95055.75
2019-03-15T20:25:59.667Z,95085.34
2019-03-15T20:28:29.191Z,95070.73
2019-03-15T20:30:58.755Z,95067.81
2019-03-15T20:33:28.247Z,95054.14
2019-03-15T20:35:57.734Z,95069.63
2019-03-15T20:38:27.187Z,95077.66
2019-03-15T20:40:56.740Z,95088.34
2019-03-15T20:43:26.337Z,95065.14
2019-03-15T20:45:55.891Z,95118.77
2019-03-15T20:48:25.342Z,95065.68
2019-03-15T20:50:54.957Z,95078.20
2019-03-15T20:53:24.417Z,95045.64
2019-03-15T20:55:55.470Z,95073.41
2019-03-15T20:58:25.051Z,95084.37
2019-03-15T21:00:54.644Z,95065.97
2019-03-15T21:03:24.125Z,95057.93
2019-03-15T21:05:53.683Z,95047.81
2019-03-15T21:08:24.291Z,95061.16
2019-03-15T21:14:07.105Z,95033.09
2019-03-15T21:16:55.910Z,95071.84
2019-03-15T21:19:44.709Z,95012.78
2019-03-15T21:22:33.541Z,95072.09
2019-03-15T21:25:22.386Z,94994.22
2019-03-15T21:28:11.154Z,95087.82
2019-03-15T21:30:59.949Z,95057.88
2019-03-15T21:33:41.470Z,95085.73
2019-03-15T21:36:30.286Z,95105.19
2019-03-15T21:39:19.055Z,95002.25
2019-03-15T21:42:07.857Z,95024.35
2019-03-15T21:45:15.674Z,95082.25
2019-03-15T21:48:04.468Z,95097.19
2019-03-15T21:50:53.267Z,95111.11
2019-03-15T21:53:42.068Z,95089.92
2019-03-15T21:56:30.862Z,95094.51
2019-03-15T21:59:19.639Z,95047.31
2019-03-15T22:02:08.449Z,95080.69
2019-03-15T22:04:49.677Z,95129.95
2019-03-15T22:07:38.475Z,95114.77
2019-03-15T22:10:27.301Z,95108.33
2019-03-15T22:13:16.066Z,95111.80
2019-03-15T22:16:04.838Z,95038.17
2019-03-15T22:18:53.638Z,95099.77
2019-03-15T22:21:42.436Z,95135.51
2019-03-15T22:24:31.196Z,95166.19
2019-03-15T22:27:19.984Z,95098.94
2019-03-15T22:30:28.078Z,95114.69
2019-03-15T22:33:16.866Z,95142.95
2019-03-15T22:36:05.666Z,95138.67
2019-03-15T22:38:54.458Z,95126.91
2019-03-15T22:41:43.228Z,95125.72
2019-03-15T22:44:32.014Z,95110.41
2019-03-15T22:47:20.831Z,95149.81
2019-03-15T22:50:30.537Z,95158.38
2019-03-15T22:53:20.819Z,95137.48
2019-03-15T22:56:09.842Z,95142.03
2019-03-15T22:58:58.626Z,95147.65
2019-03-15T23:01:47.438Z,95152.81
2019-03-15T23:04:28.728Z,95154.14
2019-03-15T23:07:17.500Z,95137.84
2019-03-15T23:10:27.187Z,95156.44
2019-03-15T23:13:15.968Z,95147.73
2019-03-15T23:16:04.754Z,95056.98
2019-03-15T23:18:53.569Z,95142.10
2019-03-15T23:21:42.375Z,95127.77
2019-03-15T23:24:31.146Z,95104.11
2019-03-15T23:27:19.994Z,95143.19
2019-03-15T23:30:29.676Z,95119.30
2019-03-15T23:33:18.466Z,95126.53
2019-03-15T23:36:07.239Z,95145.03
2019-03-15T23:38:56.026Z,95132.72
2019-03-15T23:41:44.838Z,95141.30
2019-03-15T23:44:33.606Z,95101.17
2019-03-15T23:47:22.421Z,95148.05
2019-03-15T23:50:32.127Z,95148.52
2019-03-15T23:53:20.912Z,95143.45
2019-03-15T23:56:09.713Z,95144.05
2019-03-15T23:58:58.472Z,95157.92
